sensor_id;sensor_type;location;lat;lon;timestamp;P1;durP1;ratioP1;P2;durP2;ratioP2
12770;SDS011;6449;47.666;9.160;2023-04-02T00:02:34;0.53;;;0.40;;
12770;SDS011;6449;47.666;9.160;2023-04-02T00:07:51;0.53;;;0.50;;
12770;SDS011;6449;47.666;9.160;2023-04-02T00:13:18;0.60;;;0.53;;
12770;SDS011;6449;47.666;9.160;2023-04-02T00:18:51;2.53;;;0.73;;
12770;SDS011;6449;47.666;9.160;2023-04-02T00:24:00;0.40;;;0.40;;
12770;SDS011;6449;47.666;9.160;2023-04-02T00:29:32;0.50;;;0.43;;
12770;SDS011;6449;47.666;9.160;2023-04-02T00:34:31;0.87;;;0.40;;
12770;SDS011;6449;47.666;9.160;2023-04-02T00:39:41;0.53;;;0.40;;
12770;SDS011;6449;47.666;9.160;2023-04-02T00:44:46;0.57;;;0.50;;
12770;SDS011;6449;47.666;9.160;2023-04-02T00:49:50;0.73;;;0.50;;
12770;SDS011;6449;47.666;9.160;2023-04-02T00:54:55;1.13;;;0.40;;
12770;SDS011;6449;47.666;9.160;2023-04-02T01:00:13;0.50;;;0.43;;
12770;SDS011;6449;47.666;9.160;2023-04-02T01:05:47;0.50;;;0.50;;
12770;SDS011;6449;47.666;9.160;2023-04-02T01:10:56;1.37;;;0.60;;
12770;SDS011;6449;47.666;9.160;2023-04-02T01:22:50;1.33;;;0.50;;
12770;SDS011;6449;47.666;9.160;2023-04-02T01:28:58;0.90;;;0.50;;
12770;SDS011;6449;47.666;9.160;2023-04-02T01:35:09;1.83;;;0.63;;
12770;SDS011;6449;47.666;9.160;2023-04-02T01:41:04;0.93;;;0.80;;
12770;SDS011;6449;47.666;9.160;2023-04-02T01:46:57;1.73;;;0.77;;
12770;SDS011;6449;47.666;9.160;2023-04-02T01:52:38;1.03;;;0.60;;
12770;SDS011;6449;47.666;9.160;2023-04-02T01:58:00;0.77;;;0.60;;
12770;SDS011;6449;47.666;9.160;2023-04-02T02:09:22;0.90;;;0.70;;
12770;SDS011;6449;47.666;9.160;2023-04-02T02:15:15;1.63;;;0.90;;
12770;SDS011;6449;47.666;9.160;2023-04-02T02:20:51;3.57;;;0.90;;
12770;SDS011;6449;47.666;9.160;2023-04-02T02:26:03;0.70;;;0.70;;
12770;SDS011;6449;47.666;9.160;2023-04-02T02:31:04;0.50;;;0.50;;
12770;SDS011;6449;47.666;9.160;2023-04-02T02:36:15;1.63;;;0.90;;
12770;SDS011;6449;47.666;9.160;2023-04-02T02:41:25;2.30;;;0.90;;
12770;SDS011;6449;47.666;9.160;2023-04-02T02:46:31;0.70;;;0.60;;
12770;SDS011;6449;47.666;9.160;2023-04-02T02:51:36;1.17;;;0.53;;
12770;SDS011;6449;47.666;9.160;2023-04-02T02:56:36;1.40;;;0.50;;
12770;SDS011;6449;47.666;9.160;2023-04-02T03:01:43;0.63;;;0.60;;
12770;SDS011;6449;47.666;9.160;2023-04-02T03:06:54;1.27;;;0.40;;
12770;SDS011;6449;47.666;9.160;2023-04-02T03:12:03;1.87;;;0.50;;
12770;SDS011;6449;47.666;9.160;2023-04-02T03:17:28;0.63;;;0.47;;
12770;SDS011;6449;47.666;9.160;2023-04-02T03:22:34;0.70;;;0.50;;
12770;SDS011;6449;47.666;9.160;2023-04-02T03:27:36;1.17;;;0.40;;
12770;SDS011;6449;47.666;9.160;2023-04-02T03:32:39;1.10;;;0.80;;
12770;SDS011;6449;47.666;9.160;2023-04-02T03:37:47;0.77;;;0.60;;
12770;SDS011;6449;47.666;9.160;2023-04-02T03:42:52;2.20;;;0.70;;
12770;SDS011;6449;47.666;9.160;2023-04-02T03:47:56;0.90;;;0.73;;
12770;SDS011;6449;47.666;9.160;2023-04-02T03:53:03;1.10;;;0.67;;
12770;SDS011;6449;47.666;9.160;2023-04-02T03:58:03;1.80;;;0.60;;
12770;SDS011;6449;47.666;9.160;2023-04-02T04:03:09;1.00;;;0.60;;
12770;SDS011;6449;47.666;9.160;2023-04-02T04:08:13;1.07;;;1.03;;
12770;SDS011;6449;47.666;9.160;2023-04-02T04:13:14;0.60;;;0.60;;
12770;SDS011;6449;47.666;9.160;2023-04-02T04:18:22;0.87;;;0.60;;
12770;SDS011;6449;47.666;9.160;2023-04-02T04:23:48;1.03;;;0.83;;
12770;SDS011;6449;47.666;9.160;2023-04-02T04:28:47;0.97;;;0.67;;
12770;SDS011;6449;47.666;9.160;2023-04-02T04:33:56;1.50;;;0.70;;
12770;SDS011;6449;47.666;9.160;2023-04-02T04:39:10;1.23;;;1.00;;
12770;SDS011;6449;47.666;9.160;2023-04-02T04:44:23;1.03;;;0.60;;
12770;SDS011;6449;47.666;9.160;2023-04-02T04:49:34;0.87;;;0.57;;
12770;SDS011;6449;47.666;9.160;2023-04-02T04:54:37;1.50;;;0.70;;
12770;SDS011;6449;47.666;9.160;2023-04-02T04:59:38;0.50;;;0.50;;
12770;SDS011;6449;47.666;9.160;2023-04-02T05:04:39;1.90;;;0.60;;
12770;SDS011;6449;47.666;9.160;2023-04-02T05:09:37;2.87;;;0.63;;
12770;SDS011;6449;47.666;9.160;2023-04-02T05:14:59;0.63;;;0.63;;
12770;SDS011;6449;47.666;9.160;2023-04-02T05:20:17;0.87;;;0.50;;
12770;SDS011;6449;47.666;9.160;2023-04-02T05:25:24;0.63;;;0.63;;
12770;SDS011;6449;47.666;9.160;2023-04-02T05:36:02;2.53;;;0.70;;
12770;SDS011;6449;47.666;9.160;2023-04-02T05:41:16;1.33;;;0.70;;
12770;SDS011;6449;47.666;9.160;2023-04-02T05:46:23;0.80;;;0.47;;
12770;SDS011;6449;47.666;9.160;2023-04-02T05:51:47;0.57;;;0.53;;
12770;SDS011;6449;47.666;9.160;2023-04-02T05:56:58;1.30;;;1.20;;
12770;SDS011;6449;47.666;9.160;2023-04-02T06:02:00;2.00;;;0.73;;
12770;SDS011;6449;47.666;9.160;2023-04-02T06:07:10;1.23;;;0.83;;
12770;SDS011;6449;47.666;9.160;2023-04-02T06:12:40;2.17;;;0.90;;
12770;SDS011;6449;47.666;9.160;2023-04-02T06:18:33;0.97;;;0.77;;
12770;SDS011;6449;47.666;9.160;2023-04-02T06:23:42;0.73;;;0.57;;
12770;SDS011;6449;47.666;9.160;2023-04-02T06:34:35;0.80;;;0.70;;
12770;SDS011;6449;47.666;9.160;2023-04-02T06:40:20;1.33;;;1.20;;
12770;SDS011;6449;47.666;9.160;2023-04-02T06:46:05;0.80;;;0.70;;
12770;SDS011;6449;47.666;9.160;2023-04-02T06:52:01;0.80;;;0.80;;
12770;SDS011;6449;47.666;9.160;2023-04-02T06:57:23;0.40;;;0.40;;
12770;SDS011;6449;47.666;9.160;2023-04-02T07:02:33;1.33;;;0.70;;
12770;SDS011;6449;47.666;9.160;2023-04-02T07:07:42;1.67;;;0.50;;
12770;SDS011;6449;47.666;9.160;2023-04-02T07:13:01;0.83;;;0.50;;
12770;SDS011;6449;47.666;9.160;2023-04-02T07:18:00;1.03;;;0.60;;
12770;SDS011;6449;47.666;9.160;2023-04-02T07:23:06;0.77;;;0.60;;
12770;SDS011;6449;47.666;9.160;2023-04-02T07:28:16;0.50;;;0.50;;
12770;SDS011;6449;47.666;9.160;2023-04-02T07:33:14;1.40;;;0.40;;
12770;SDS011;6449;47.666;9.160;2023-04-02T07:38:10;0.40;;;0.37;;
12770;SDS011;6449;47.666;9.160;2023-04-02T07:43:09;1.77;;;0.50;;
12770;SDS011;6449;47.666;9.160;2023-04-02T07:48:37;0.60;;;0.40;;
12770;SDS011;6449;47.666;9.160;2023-04-02T07:53:32;0.70;;;0.70;;
12770;SDS011;6449;47.666;9.160;2023-04-02T07:58:35;1.20;;;0.90;;
12770;SDS011;6449;47.666;9.160;2023-04-02T08:03:44;0.80;;;0.40;;
12770;SDS011;6449;47.666;9.160;2023-04-02T08:08:44;0.60;;;0.30;;
12770;SDS011;6449;47.666;9.160;2023-04-02T08:13:43;1.60;;;0.50;;
12770;SDS011;6449;47.666;9.160;2023-04-02T08:18:39;0.20;;;0.20;;
12770;SDS011;6449;47.666;9.160;2023-04-02T08:23:37;1.00;;;0.40;;
12770;SDS011;6449;47.666;9.160;2023-04-02T08:28:36;0.83;;;0.30;;
12770;SDS011;6449;47.666;9.160;2023-04-02T08:33:33;0.70;;;0.43;;
12770;SDS011;6449;47.666;9.160;2023-04-02T08:38:34;0.43;;;0.40;;
12770;SDS011;6449;47.666;9.160;2023-04-02T08:43:46;0.77;;;0.40;;
12770;SDS011;6449;47.666;9.160;2023-04-02T08:48:58;0.77;;;0.60;;
12770;SDS011;6449;47.666;9.160;2023-04-02T09:14:40;0.43;;;0.30;;
12770;SDS011;6449;47.666;9.160;2023-04-02T09:19:37;0.67;;;0.40;;
12770;SDS011;6449;47.666;9.160;2023-04-02T09:24:41;0.30;;;0.30;;
12770;SDS011;6449;47.666;9.160;2023-04-02T09:29:41;2.63;;;0.40;;
12770;SDS011;6449;47.666;9.160;2023-04-02T09:34:46;1.17;;;0.30;;
12770;SDS011;6449;47.666;9.160;2023-04-02T09:39:42;0.30;;;0.20;;
12770;SDS011;6449;47.666;9.160;2023-04-02T09:44:39;0.93;;;0.47;;
12770;SDS011;6449;47.666;9.160;2023-04-02T09:49:43;0.97;;;0.37;;
12770;SDS011;6449;47.666;9.160;2023-04-02T09:54:42;0.60;;;0.30;;
12770;SDS011;6449;47.666;9.160;2023-04-02T09:59:43;1.73;;;0.40;;
12770;SDS011;6449;47.666;9.160;2023-04-02T10:04:42;0.80;;;0.30;;
12770;SDS011;6449;47.666;9.160;2023-04-02T10:09:41;0.80;;;0.30;;
12770;SDS011;6449;47.666;9.160;2023-04-02T10:14:51;0.27;;;0.27;;
12770;SDS011;6449;47.666;9.160;2023-04-02T10:19:57;0.63;;;0.37;;
12770;SDS011;6449;47.666;9.160;2023-04-02T10:25:08;0.77;;;0.20;;
12770;SDS011;6449;47.666;9.160;2023-04-02T10:31:08;1.47;;;0.40;;
12770;SDS011;6449;47.666;9.160;2023-04-02T10:36:06;0.33;;;0.33;;
12770;SDS011;6449;47.666;9.160;2023-04-02T10:41:37;0.30;;;0.30;;
12770;SDS011;6449;47.666;9.160;2023-04-02T10:58:51;0.60;;;0.37;;
12770;SDS011;6449;47.666;9.160;2023-04-02T11:17:22;0.60;;;0.30;;
12770;SDS011;6449;47.666;9.160;2023-04-02T12:05:24;0.60;;;0.40;;
12770;SDS011;6449;47.666;9.160;2023-04-02T12:10:48;0.60;;;0.50;;
12770;SDS011;6449;47.666;9.160;2023-04-02T12:15:50;0.40;;;0.40;;
12770;SDS011;6449;47.666;9.160;2023-04-02T12:20:57;1.50;;;0.50;;
12770;SDS011;6449;47.666;9.160;2023-04-02T12:26:04;0.57;;;0.37;;
12770;SDS011;6449;47.666;9.160;2023-04-02T12:31:34;0.43;;;0.30;;
12770;SDS011;6449;47.666;9.160;2023-04-02T12:36:56;2.93;;;0.30;;
12770;SDS011;6449;47.666;9.160;2023-04-02T12:41:57;0.57;;;0.40;;
12770;SDS011;6449;47.666;9.160;2023-04-02T12:46:57;0.20;;;0.20;;
12770;SDS011;6449;47.666;9.160;2023-04-02T12:52:09;0.30;;;0.30;;
12770;SDS011;6449;47.666;9.160;2023-04-02T12:57:29;0.20;;;0.20;;
12770;SDS011;6449;47.666;9.160;2023-04-02T13:02:32;0.63;;;0.30;;
12770;SDS011;6449;47.666;9.160;2023-04-02T13:07:39;0.60;;;0.13;;
12770;SDS011;6449;47.666;9.160;2023-04-02T13:12:41;0.20;;;0.20;;
12770;SDS011;6449;47.666;9.160;2023-04-02T13:17:38;1.30;;;0.47;;
12770;SDS011;6449;47.666;9.160;2023-04-02T13:22:34;0.10;;;0.10;;
12770;SDS011;6449;47.666;9.160;2023-04-02T13:27:30;0.47;;;0.10;;
12770;SDS011;6449;47.666;9.160;2023-04-02T13:32:26;1.50;;;0.37;;
12770;SDS011;6449;47.666;9.160;2023-04-02T13:37:21;0.50;;;0.40;;
12770;SDS011;6449;47.666;9.160;2023-04-02T13:42:18;0.40;;;0.20;;
12770;SDS011;6449;47.666;9.160;2023-04-02T13:47:14;0.50;;;0.20;;
12770;SDS011;6449;47.666;9.160;2023-04-02T13:52:08;0.30;;;0.30;;
12770;SDS011;6449;47.666;9.160;2023-04-02T13:57:07;0.20;;;0.20;;
12770;SDS011;6449;47.666;9.160;2023-04-02T14:02:05;0.20;;;0.20;;
12770;SDS011;6449;47.666;9.160;2023-04-02T14:07:12;1.60;;;0.40;;
12770;SDS011;6449;47.666;9.160;2023-04-02T14:12:30;0.67;;;0.20;;
12770;SDS011;6449;47.666;9.160;2023-04-02T14:17:44;0.20;;;0.20;;
12770;SDS011;6449;47.666;9.160;2023-04-02T14:28:37;1.83;;;0.30;;
12770;SDS011;6449;47.666;9.160;2023-04-02T14:33:54;0.97;;;0.47;;
12770;SDS011;6449;47.666;9.160;2023-04-02T14:43:59;0.10;;;0.10;;
12770;SDS011;6449;47.666;9.160;2023-04-02T14:49:18;0.77;;;0.20;;
12770;SDS011;6449;47.666;9.160;2023-04-02T14:54:48;0.10;;;0.10;;
12770;SDS011;6449;47.666;9.160;2023-04-02T15:00:09;0.10;;;0.10;;
12770;SDS011;6449;47.666;9.160;2023-04-02T15:06:01;0.10;;;0.10;;
12770;SDS011;6449;47.666;9.160;2023-04-02T15:11:05;0.40;;;0.30;;
12770;SDS011;6449;47.666;9.160;2023-04-02T15:16:31;0.50;;;0.50;;
12770;SDS011;6449;47.666;9.160;2023-04-02T15:21:42;0.50;;;0.33;;
12770;SDS011;6449;47.666;9.160;2023-04-02T15:27:21;0.50;;;0.40;;
12770;SDS011;6449;47.666;9.160;2023-04-02T15:32:34;1.23;;;0.27;;
12770;SDS011;6449;47.666;9.160;2023-04-02T15:37:33;0.60;;;0.43;;
12770;SDS011;6449;47.666;9.160;2023-04-02T15:42:56;0.20;;;0.20;;
12770;SDS011;6449;47.666;9.160;2023-04-02T15:54:20;0.23;;;0.10;;
12770;SDS011;6449;47.666;9.160;2023-04-02T15:59:52;0.10;;;0.10;;
12770;SDS011;6449;47.666;9.160;2023-04-02T16:06:16;0.33;;;0.30;;
12770;SDS011;6449;47.666;9.160;2023-04-02T16:11:54;0.37;;;0.37;;
12770;SDS011;6449;47.666;9.160;2023-04-02T16:17:14;0.30;;;0.30;;
12770;SDS011;6449;47.666;9.160;2023-04-02T16:22:20;0.20;;;0.20;;
12770;SDS011;6449;47.666;9.160;2023-04-02T16:27:51;0.20;;;0.20;;
12770;SDS011;6449;47.666;9.160;2023-04-02T16:33:30;0.10;;;0.10;;
12770;SDS011;6449;47.666;9.160;2023-04-02T16:39:00;0.67;;;0.30;;
12770;SDS011;6449;47.666;9.160;2023-04-02T16:51:08;0.20;;;0.20;;
12770;SDS011;6449;47.666;9.160;2023-04-02T16:56:22;1.37;;;0.40;;
12770;SDS011;6449;47.666;9.160;2023-04-02T17:01:51;0.60;;;0.40;;
12770;SDS011;6449;47.666;9.160;2023-04-02T17:06:55;0.40;;;0.30;;
12770;SDS011;6449;47.666;9.160;2023-04-02T17:12:04;0.13;;;0.13;;
12770;SDS011;6449;47.666;9.160;2023-04-02T17:17:09;0.27;;;0.27;;
12770;SDS011;6449;47.666;9.160;2023-04-02T17:22:09;0.40;;;0.40;;
12770;SDS011;6449;47.666;9.160;2023-04-02T17:27:16;0.53;;;0.40;;
12770;SDS011;6449;47.666;9.160;2023-04-02T18:13:47;2.40;;;1.57;;
12770;SDS011;6449;47.666;9.160;2023-04-02T18:19:07;1.30;;;1.13;;
12770;SDS011;6449;47.666;9.160;2023-04-02T19:05:16;6.43;;;2.77;;
12770;SDS011;6449;47.666;9.160;2023-04-02T19:10:30;4.83;;;1.97;;
12770;SDS011;6449;47.666;9.160;2023-04-02T19:25:38;3.17;;;1.63;;
12770;SDS011;6449;47.666;9.160;2023-04-02T19:40:58;1.97;;;1.30;;
12770;SDS011;6449;47.666;9.160;2023-04-02T19:56:14;0.97;;;0.87;;
12770;SDS011;6449;47.666;9.160;2023-04-02T20:01:08;1.23;;;1.13;;
12770;SDS011;6449;47.666;9.160;2023-04-02T20:11:08;1.10;;;1.07;;
12770;SDS011;6449;47.666;9.160;2023-04-02T20:16:03;2.50;;;1.80;;
12770;SDS011;6449;47.666;9.160;2023-04-02T20:20:58;1.13;;;1.00;;
12770;SDS011;6449;47.666;9.160;2023-04-02T20:25:56;1.60;;;1.50;;
12770;SDS011;6449;47.666;9.160;2023-04-02T21:27:07;2.40;;;2.20;;
12770;SDS011;6449;47.666;9.160;2023-04-02T21:32:01;3.40;;;2.50;;
12770;SDS011;6449;47.666;9.160;2023-04-02T21:37:11;2.70;;;2.50;;
12770;SDS011;6449;47.666;9.160;2023-04-02T21:42:05;2.70;;;2.50;;
12770;SDS011;6449;47.666;9.160;2023-04-02T21:46:59;2.73;;;2.53;;
12770;SDS011;6449;47.666;9.160;2023-04-02T21:51:53;2.73;;;2.53;;
12770;SDS011;6449;47.666;9.160;2023-04-02T21:56:47;3.03;;;2.73;;
12770;SDS011;6449;47.666;9.160;2023-04-02T22:01:42;3.60;;;3.30;;
12770;SDS011;6449;47.666;9.160;2023-04-02T22:06:39;4.43;;;4.03;;
12770;SDS011;6449;47.666;9.160;2023-04-02T22:11:35;4.27;;;3.87;;
12770;SDS011;6449;47.666;9.160;2023-04-02T22:16:34;4.23;;;3.80;;
12770;SDS011;6449;47.666;9.160;2023-04-02T22:21:29;3.30;;;3.07;;
12770;SDS011;6449;47.666;9.160;2023-04-02T22:26:25;2.97;;;2.77;;
12770;SDS011;6449;47.666;9.160;2023-04-02T22:31:20;3.13;;;2.83;;
12770;SDS011;6449;47.666;9.160;2023-04-02T22:36:16;2.57;;;2.37;;
12770;SDS011;6449;47.666;9.160;2023-04-02T22:41:13;3.10;;;2.40;;
12770;SDS011;6449;47.666;9.160;2023-04-02T22:46:10;2.50;;;2.30;;
12770;SDS011;6449;47.666;9.160;2023-04-02T23:06:32;3.30;;;3.00;;
12770;SDS011;6449;47.666;9.160;2023-04-02T23:16:33;3.40;;;3.03;;
12770;SDS011;6449;47.666;9.160;2023-04-02T23:37:06;4.00;;;3.63;;
